createdAt,value
2023-03-31T00:01:35.342Z,100.00
2023-03-31T00:04:03.517Z,100.00
2023-03-31T00:06:33.951Z,100.00
2023-03-31T00:09:01.534Z,100.00
2023-03-31T00:11:29.279Z,100.00
2023-03-31T00:13:58.989Z,100.00
2023-03-31T00:16:26.833Z,100.00
2023-03-31T00:18:55.915Z,100.00
2023-03-31T00:21:24.762Z,100.00
2023-03-31T00:23:54.033Z,100.00
2023-03-31T00:26:30.613Z,100.00
2023-03-31T00:29:00.627Z,100.00
2023-03-31T00:31:28.982Z,100.00
2023-03-31T00:33:57.266Z,100.00
2023-03-31T00:36:26.018Z,100.00
2023-03-31T00:38:57.660Z,100.00
2023-03-31T00:41:25.649Z,100.00
2023-03-31T00:44:08.331Z,100.00
2023-03-31T00:46:43.162Z,100.00
2023-03-31T00:49:18.261Z,100.00
2023-03-31T00:51:45.944Z,100.00
2023-03-31T00:54:13.765Z,100.00
2023-03-31T00:56:46.143Z,100.00
2023-03-31T00:59:16.159Z,100.00
2023-03-31T01:01:48.322Z,100.00
2023-03-31T01:04:18.538Z,100.00
2023-03-31T01:06:56.621Z,100.00
2023-03-31T01:09:24.912Z,100.00
2023-03-31T01:11:53.389Z,100.00
2023-03-31T01:14:22.727Z,100.00
2023-03-31T01:16:50.753Z,100.00
2023-03-31T01:19:31.161Z,100.00
2023-03-31T01:22:36.016Z,100.00
2023-03-31T01:25:29.709Z,100.00
2023-03-31T01:28:07.225Z,100.00
2023-03-31T01:31:07.298Z,100.00
2023-03-31T01:33:56.223Z,100.00
2023-03-31T01:37:06.037Z,100.00
2023-03-31T01:40:17.556Z,100.00
2023-03-31T01:42:52.440Z,100.00
2023-03-31T01:45:31.319Z,100.00
2023-03-31T01:48:02.658Z,100.00
2023-03-31T01:50:36.699Z,100.00
2023-03-31T01:53:10.287Z,100.00
2023-03-31T01:55:44.533Z,100.00
2023-03-31T01:58:18.262Z,100.00
2023-03-31T02:00:51.932Z,100.00
2023-03-31T02:03:24.518Z,100.00
2023-03-31T02:05:55.406Z,100.00
2023-03-31T02:08:29.327Z,100.00
2023-03-31T02:10:59.362Z,100.00
2023-03-31T02:13:29.529Z,100.00
2023-03-31T02:16:00.609Z,100.00
2023-03-31T02:18:31.408Z,100.00
2023-03-31T02:21:01.042Z,100.00
2023-03-31T02:23:31.211Z,100.00
2023-03-31T02:26:05.068Z,100.00
2023-03-31T02:28:33.877Z,100.00
2023-03-31T02:31:12.280Z,100.00
2023-03-31T02:33:40.672Z,100.00
2023-03-31T02:36:09.466Z,100.00
2023-03-31T02:38:43.937Z,100.00
2023-03-31T02:41:13.275Z,100.00
2023-03-31T02:43:41.103Z,100.00
2023-03-31T02:46:13.380Z,100.00
2023-03-31T02:48:48.311Z,100.00
2023-03-31T02:51:45.464Z,100.00
2023-03-31T02:54:42.162Z,100.00
2023-03-31T02:57:35.967Z,100.00
2023-03-31T03:00:12.680Z,100.00
2023-03-31T03:02:53.269Z,100.00
2023-03-31T03:05:32.052Z,100.00
2023-03-31T03:08:09.530Z,100.00
2023-03-31T03:10:51.663Z,100.00
2023-03-31T03:13:27.308Z,100.00
2023-03-31T03:16:01.506Z,100.00
2023-03-31T03:18:31.543Z,100.00
2023-03-31T03:20:59.106Z,100.00
2023-03-31T03:23:26.699Z,100.00
2023-03-31T03:25:55.154Z,100.00
2023-03-31T03:28:25.415Z,100.00
2023-03-31T03:30:53.322Z,100.00
2023-03-31T03:33:21.924Z,100.00
2023-03-31T03:35:49.581Z,100.00
2023-03-31T03:38:17.135Z,100.00
2023-03-31T03:40:46.306Z,100.00
2023-03-31T03:43:15.360Z,100.00
2023-03-31T03:45:48.369Z,100.00
2023-03-31T03:48:20.324Z,100.00
2023-03-31T03:50:50.962Z,100.00
2023-03-31T03:53:19.304Z,100.00
2023-03-31T03:55:47.246Z,100.00
2023-03-31T03:58:15.705Z,100.00
2023-03-31T04:00:44.681Z,100.00
2023-03-31T04:03:13.333Z,100.00
2023-03-31T04:05:41.351Z,100.00
2023-03-31T04:08:08.990Z,100.00
2023-03-31T04:10:36.982Z,100.00
2023-03-31T04:13:04.808Z,100.00
2023-03-31T04:15:32.377Z,100.00
2023-03-31T04:18:01.521Z,100.00
2023-03-31T04:20:29.448Z,100.00
2023-03-31T04:22:57.020Z,100.00
2023-03-31T04:25:24.696Z,100.00
2023-03-31T04:27:53.060Z,100.00
2023-03-31T04:30:26.836Z,100.00
2023-03-31T04:32:56.841Z,100.00
2023-03-31T04:35:27.924Z,100.00
2023-03-31T04:37:55.638Z,98.52
2023-03-31T04:40:23.398Z,95.72
2023-03-31T04:42:51.547Z,93.80
2023-03-31T04:45:19.173Z,89.39
2023-03-31T04:47:50.116Z,86.93
2023-03-31T04:50:18.019Z,84.26
2023-03-31T04:52:47.301Z,80.49
2023-03-31T04:55:15.545Z,77.30
2023-03-31T04:57:44.057Z,74.47
2023-03-31T05:00:19.322Z,72.12
2023-03-31T05:02:47.280Z,70.14
2023-03-31T05:05:15.571Z,66.28
2023-03-31T05:07:43.649Z,63.59
2023-03-31T05:10:17.983Z,61.78
2023-03-31T05:12:47.630Z,60.13
2023-03-31T05:15:15.365Z,58.41
2023-03-31T05:17:44.750Z,57.34
2023-03-31T05:20:13.795Z,55.05
2023-03-31T05:22:43.781Z,53.92
2023-03-31T05:25:13.065Z,53.97
2023-03-31T05:27:42.653Z,51.58
2023-03-31T05:30:10.798Z,51.95
2023-03-31T05:32:38.656Z,49.88
2023-03-31T05:35:10.736Z,48.42
2023-03-31T05:37:38.732Z,46.68
2023-03-31T05:40:08.054Z,46.98
2023-03-31T05:42:36.064Z,46.99
2023-03-31T05:45:08.972Z,44.62
2023-03-31T05:47:37.495Z,44.68
2023-03-31T05:50:05.805Z,43.65
2023-03-31T05:52:33.853Z,42.22
2023-03-31T05:55:01.652Z,42.09
2023-03-31T05:57:29.561Z,41.38
2023-03-31T05:59:57.272Z,40.30
2023-03-31T06:02:26.841Z,38.71
2023-03-31T06:04:54.617Z,39.59
2023-03-31T06:07:24.543Z,39.31
2023-03-31T06:09:55.968Z,38.99
2023-03-31T06:12:23.536Z,37.94
2023-03-31T06:14:51.150Z,38.34
2023-03-31T06:17:19.322Z,37.10
2023-03-31T06:19:48.288Z,37.55
2023-03-31T06:22:15.847Z,36.44
2023-03-31T06:24:43.928Z,37.04
2023-03-31T06:27:13.411Z,36.45
2023-03-31T06:29:41.739Z,37.04
2023-03-31T06:32:09.775Z,36.58
2023-03-31T06:34:37.379Z,37.39
2023-03-31T06:37:06.355Z,36.63
2023-03-31T06:39:34.396Z,36.24
2023-03-31T06:42:02.011Z,36.18
2023-03-31T06:44:29.869Z,37.09
2023-03-31T06:46:58.068Z,36.57
2023-03-31T06:49:25.713Z,36.38
2023-03-31T06:51:53.322Z,35.54
2023-03-31T06:54:22.607Z,36.69
2023-03-31T06:56:50.406Z,36.82
2023-03-31T06:59:17.991Z,37.27
2023-03-31T07:01:45.936Z,37.39
2023-03-31T07:04:14.662Z,37.11
2023-03-31T07:06:42.636Z,37.26
2023-03-31T07:09:10.425Z,37.85
2023-03-31T07:11:40.648Z,37.79
2023-03-31T07:14:13.024Z,38.49
2023-03-31T07:16:40.969Z,38.90
2023-03-31T07:19:13.104Z,39.39
2023-03-31T07:21:41.338Z,38.67
2023-03-31T07:24:08.992Z,38.88
2023-03-31T07:26:36.969Z,38.67
2023-03-31T07:29:06.882Z,39.49
2023-03-31T07:31:38.530Z,39.53
2023-03-31T07:34:06.328Z,39.98
2023-03-31T07:36:34.064Z,40.91
2023-03-31T07:39:01.810Z,41.06
2023-03-31T07:41:29.562Z,41.53
2023-03-31T07:43:57.257Z,39.98
2023-03-31T07:46:28.602Z,40.13
2023-03-31T07:48:56.884Z,39.78
2023-03-31T07:51:26.792Z,40.22
2023-03-31T07:53:54.593Z,40.12
2023-03-31T07:56:24.800Z,40.46
2023-03-31T07:58:55.058Z,40.97
2023-03-31T08:01:23.194Z,39.75
2023-03-31T08:03:52.568Z,41.09
2023-03-31T08:06:21.824Z,41.26
2023-03-31T08:08:49.909Z,40.22
2023-03-31T08:11:18.638Z,40.78
2023-03-31T08:13:46.808Z,40.70
2023-03-31T08:16:14.645Z,40.10
2023-03-31T08:18:42.495Z,40.63
2023-03-31T08:21:11.949Z,41.43
2023-03-31T08:23:39.939Z,41.81
2023-03-31T08:26:14.528Z,41.45
2023-03-31T08:28:45.020Z,41.47
2023-03-31T08:31:12.600Z,41.21
2023-03-31T08:33:40.384Z,41.57
2023-03-31T08:36:09.729Z,42.53
2023-03-31T08:38:40.967Z,42.17
2023-03-31T08:41:22.600Z,43.67
2023-03-31T08:43:51.467Z,44.35
2023-03-31T08:46:19.793Z,43.97
2023-03-31T08:48:51.835Z,44.16
2023-03-31T08:51:24.106Z,43.93
2023-03-31T08:53:59.404Z,43.43
2023-03-31T08:56:27.958Z,43.82
2023-03-31T08:58:55.879Z,44.37
2023-03-31T09:01:47.700Z,45.21
2023-03-31T09:04:36.691Z,45.15
2023-03-31T09:07:08.896Z,46.54
2023-03-31T09:09:51.608Z,49.19
2023-03-31T09:12:23.738Z,47.94
2023-03-31T09:14:57.210Z,49.23
2023-03-31T09:17:27.846Z,51.24
2023-03-31T09:20:01.246Z,50.01
2023-03-31T09:22:33.442Z,50.80
2023-03-31T09:25:11.300Z,50.40
2023-03-31T09:27:41.595Z,49.54
2023-03-31T09:30:14.512Z,48.26
2023-03-31T09:32:43.207Z,54.03
2023-03-31T09:35:17.415Z,56.42
2023-03-31T09:37:45.694Z,57.60
2023-03-31T09:40:19.010Z,57.98
2023-03-31T09:42:51.041Z,59.39
2023-03-31T09:45:20.087Z,57.96
2023-03-31T09:47:55.378Z,57.63
2023-03-31T09:50:25.113Z,61.59
2023-03-31T09:52:56.192Z,61.94
2023-03-31T09:55:39.761Z,61.74
2023-03-31T09:58:12.784Z,62.95
2023-03-31T10:00:43.018Z,61.26
2023-03-31T10:03:13.662Z,62.66
2023-03-31T10:05:50.420Z,61.55
2023-03-31T10:08:26.529Z,59.97
2023-03-31T10:10:57.438Z,58.60
2023-03-31T10:13:40.583Z,58.69
2023-03-31T10:16:13.638Z,59.96
2023-03-31T10:18:43.649Z,61.02
2023-03-31T10:21:21.917Z,61.51
2023-03-31T10:23:51.103Z,61.13
2023-03-31T10:26:22.178Z,59.01
2023-03-31T10:28:52.485Z,61.60
2023-03-31T10:31:24.515Z,60.87
2023-03-31T10:33:52.256Z,62.50
2023-03-31T10:36:24.305Z,60.68
2023-03-31T10:38:53.858Z,62.49
2023-03-31T10:41:27.039Z,62.04
2023-03-31T10:43:56.451Z,62.56
2023-03-31T10:46:41.346Z,62.95
2023-03-31T10:49:16.230Z,63.15
2023-03-31T10:51:49.574Z,62.51
2023-03-31T10:54:17.511Z,63.72
2023-03-31T10:56:50.164Z,64.59
2023-03-31T10:59:43.918Z,64.17
2023-03-31T11:02:37.429Z,64.96
2023-03-31T11:05:14.345Z,64.43
2023-03-31T11:07:54.272Z,64.65
2023-03-31T11:10:37.281Z,64.27
2023-03-31T11:13:11.227Z,65.91
2023-03-31T11:15:47.462Z,66.42
2023-03-31T11:18:40.041Z,67.83
2023-03-31T11:21:19.495Z,67.54
2023-03-31T11:23:56.124Z,67.15
2023-03-31T11:26:32.564Z,68.40
2023-03-31T11:29:15.627Z,69.02
2023-03-31T11:31:52.287Z,70.02
2023-03-31T11:34:57.571Z,69.00
2023-03-31T11:37:47.654Z,68.96
2023-03-31T11:40:34.987Z,69.14
2023-03-31T11:43:07.770Z,69.36
2023-03-31T11:45:41.316Z,68.57
2023-03-31T11:48:18.036Z,69.15
2023-03-31T11:50:48.766Z,69.96
2023-03-31T11:53:19.224Z,69.97
2023-03-31T11:55:51.556Z,70.47
2023-03-31T11:58:24.580Z,70.21
2023-03-31T12:01:00.179Z,71.14
2023-03-31T12:03:37.286Z,71.72
2023-03-31T12:06:13.518Z,70.57
2023-03-31T12:08:47.507Z,71.04
2023-03-31T12:11:22.110Z,69.62
2023-03-31T12:13:56.393Z,68.03
2023-03-31T12:16:34.532Z,67.05
2023-03-31T12:19:08.008Z,67.26
2023-03-31T12:21:38.895Z,67.44
2023-03-31T12:24:10.797Z,68.33
2023-03-31T12:26:46.875Z,68.85
2023-03-31T12:29:24.281Z,68.34
2023-03-31T12:31:55.820Z,68.82
2023-03-31T12:34:26.804Z,70.00
2023-03-31T12:37:13.492Z,70.80
2023-03-31T12:39:52.545Z,70.25
2023-03-31T12:42:44.243Z,70.37
2023-03-31T12:45:21.404Z,70.24
2023-03-31T12:48:18.727Z,72.01
2023-03-31T12:51:11.895Z,71.78
2023-03-31T12:53:50.533Z,71.94
2023-03-31T12:56:18.429Z,71.94
2023-03-31T12:58:47.004Z,71.72
2023-03-31T13:01:19.350Z,72.56
2023-03-31T13:04:08.498Z,71.41
2023-03-31T13:06:54.933Z,71.89
2023-03-31T13:09:43.972Z,71.51
2023-03-31T13:12:16.851Z,72.25
2023-03-31T13:14:47.042Z,74.20
2023-03-31T13:17:23.775Z,75.12
2023-03-31T13:19:54.319Z,76.31
2023-03-31T13:22:32.360Z,77.10
2023-03-31T13:25:39.850Z,77.82
2023-03-31T13:28:16.086Z,78.48
2023-03-31T13:30:51.375Z,77.67
2023-03-31T13:33:26.842Z,78.47
2023-03-31T13:36:13.334Z,78.55
2023-03-31T13:38:53.160Z,78.10
2023-03-31T13:41:30.922Z,78.74
2023-03-31T13:44:21.906Z,78.82
2023-03-31T13:47:19.439Z,81.27
2023-03-31T13:49:54.482Z,82.52
2023-03-31T13:52:44.375Z,82.88
2023-03-31T13:55:58.976Z,85.02
2023-03-31T13:58:44.315Z,85.43
2023-03-31T14:01:33.149Z,87.16
2023-03-31T14:04:14.406Z,86.92
2023-03-31T14:06:47.567Z,88.26
2023-03-31T14:09:25.927Z,88.90
2023-03-31T14:11:53.654Z,89.84
2023-03-31T14:14:21.341Z,89.64
2023-03-31T14:16:53.942Z,90.42
2023-03-31T14:19:50.170Z,89.88
2023-03-31T14:22:32.211Z,91.22
2023-03-31T14:25:11.765Z,90.06
2023-03-31T14:27:51.702Z,89.89
2023-03-31T14:30:32.122Z,91.08
2023-03-31T14:33:13.411Z,90.81
2023-03-31T14:35:50.318Z,89.52
2023-03-31T14:38:23.735Z,89.08
2023-03-31T14:40:54.407Z,89.72
2023-03-31T14:43:25.284Z,91.01
2023-03-31T14:45:57.809Z,92.25
2023-03-31T14:48:28.055Z,94.15
2023-03-31T14:50:58.191Z,96.04
2023-03-31T14:53:26.956Z,97.36
2023-03-31T14:56:02.568Z,99.22
2023-03-31T14:58:33.760Z,100.00
2023-03-31T15:01:04.149Z,100.00
2023-03-31T15:03:35.252Z,100.00
2023-03-31T15:06:05.092Z,100.00
2023-03-31T15:08:34.936Z,100.00
2023-03-31T15:13:46.802Z,100.00
2023-03-31T15:16:30.061Z,100.00
2023-03-31T15:19:11.418Z,100.00
2023-03-31T15:21:39.890Z,100.00
2023-03-31T15:24:07.888Z,100.00
2023-03-31T15:26:41.916Z,100.00
2023-03-31T15:29:16.176Z,100.00
2023-03-31T15:31:44.264Z,100.00
2023-03-31T15:34:19.790Z,100.00
2023-03-31T15:36:47.999Z,100.00
2023-03-31T15:39:15.894Z,100.00
2023-03-31T15:41:48.193Z,100.00
2023-03-31T15:44:43.661Z,100.00
2023-03-31T15:47:17.998Z,100.00
2023-03-31T15:49:51.843Z,100.00
2023-03-31T15:52:27.811Z,100.00
2023-03-31T15:54:56.335Z,100.00
2023-03-31T15:57:32.515Z,100.00
2023-03-31T16:00:01.460Z,100.00
2023-03-31T16:02:40.225Z,100.00
2023-03-31T16:05:27.010Z,100.00
2023-03-31T16:07:58.403Z,100.00
2023-03-31T16:10:26.805Z,100.00
2023-03-31T16:13:03.350Z,100.00
2023-03-31T16:15:35.714Z,100.00
2023-03-31T16:18:08.640Z,100.00
2023-03-31T16:20:42.678Z,100.00
2023-03-31T16:23:19.017Z,100.00
2023-03-31T16:25:46.890Z,100.00
2023-03-31T16:28:19.425Z,100.00
2023-03-31T16:30:47.831Z,100.00
2023-03-31T16:33:19.588Z,100.00
2023-03-31T16:35:48.968Z,100.00
2023-03-31T16:38:17.215Z,100.00
2023-03-31T16:40:48.498Z,100.00
2023-03-31T16:43:19.683Z,100.00
2023-03-31T16:45:49.261Z,100.00
2023-03-31T16:48:18.953Z,100.00
2023-03-31T16:50:52.881Z,100.00
2023-03-31T16:53:23.739Z,100.00
2023-03-31T16:55:52.208Z,100.00
2023-03-31T16:58:22.002Z,100.00
2023-03-31T17:00:50.409Z,100.00
2023-03-31T17:03:20.145Z,100.00
2023-03-31T17:05:49.870Z,100.00
2023-03-31T17:08:17.576Z,100.00
2023-03-31T17:10:52.610Z,100.00
2023-03-31T17:13:22.081Z,100.00
2023-03-31T17:15:52.111Z,100.00
2023-03-31T17:18:24.142Z,100.00
2023-03-31T17:20:52.422Z,100.00
2023-03-31T17:23:20.139Z,100.00
2023-03-31T17:25:49.021Z,100.00
2023-03-31T17:28:16.812Z,100.00
2023-03-31T17:30:46.256Z,100.00
2023-03-31T17:33:15.046Z,100.00
2023-03-31T17:35:43.083Z,100.00
2023-03-31T17:38:11.541Z,100.00
2023-03-31T17:40:39.705Z,100.00
2023-03-31T17:43:09.808Z,100.00
2023-03-31T17:45:38.150Z,100.00
2023-03-31T17:48:09.037Z,100.00
2023-03-31T17:50:37.963Z,100.00
2023-03-31T17:53:05.855Z,100.00
2023-03-31T17:55:42.892Z,100.00
2023-03-31T17:58:10.913Z,100.00
2023-03-31T18:00:40.650Z,100.00
2023-03-31T18:03:09.689Z,100.00
2023-03-31T18:05:39.591Z,100.00
2023-03-31T18:08:08.679Z,100.00
2023-03-31T18:10:37.384Z,100.00
2023-03-31T18:13:06.666Z,100.00
2023-03-31T18:15:34.872Z,100.00
2023-03-31T18:18:02.598Z,100.00
2023-03-31T18:20:33.015Z,100.00
2023-03-31T18:23:00.790Z,100.00
2023-03-31T18:25:28.395Z,100.00
2023-03-31T18:27:58.826Z,100.00
2023-03-31T18:30:26.550Z,100.00
2023-03-31T18:32:54.474Z,100.00
2023-03-31T18:35:22.482Z,100.00
2023-03-31T18:37:51.723Z,100.00
2023-03-31T18:40:19.323Z,100.00
2023-03-31T18:42:47.357Z,100.00
2023-03-31T18:45:15.301Z,100.00
2023-03-31T18:47:45.014Z,100.00
2023-03-31T18:50:13.126Z,100.00
2023-03-31T18:52:41.148Z,100.00
2023-03-31T18:55:10.754Z,100.00
2023-03-31T18:57:38.883Z,100.00
2023-03-31T19:00:08.243Z,100.00
2023-03-31T19:02:36.773Z,100.00
2023-03-31T19:05:05.230Z,100.00
2023-03-31T19:07:33.839Z,100.00
2023-03-31T19:10:01.693Z,100.00
2023-03-31T19:12:31.170Z,100.00
2023-03-31T19:14:59.146Z,100.00
2023-03-31T19:17:28.805Z,100.00
2023-03-31T19:19:58.757Z,100.00
2023-03-31T19:22:26.479Z,100.00
2023-03-31T19:24:54.111Z,100.00
2023-03-31T19:27:22.076Z,100.00
2023-03-31T19:29:51.414Z,100.00
2023-03-31T19:32:19.148Z,100.00
2023-03-31T19:34:48.087Z,100.00
2023-03-31T19:37:15.827Z,100.00
2023-03-31T19:39:43.700Z,100.00
2023-03-31T19:42:11.497Z,100.00
2023-03-31T19:44:39.314Z,100.00
2023-03-31T19:47:08.449Z,100.00
2023-03-31T19:49:36.315Z,100.00
2023-03-31T19:52:04.548Z,100.00
2023-03-31T19:54:32.204Z,100.00
2023-03-31T19:57:03.142Z,100.00
2023-03-31T19:59:31.008Z,100.00
2023-03-31T20:01:59.062Z,100.00
2023-03-31T20:04:28.522Z,100.00
2023-03-31T20:06:56.314Z,100.00
2023-03-31T20:09:24.561Z,100.00
2023-03-31T20:11:53.125Z,100.00
2023-03-31T20:14:21.697Z,100.00
2023-03-31T20:16:53.613Z,100.00
2023-03-31T20:19:21.824Z,100.00
2023-03-31T20:21:52.511Z,100.00
2023-03-31T20:24:20.573Z,100.00
2023-03-31T20:26:48.993Z,100.00
2023-03-31T20:29:16.867Z,100.00
2023-03-31T20:31:46.399Z,100.00
2023-03-31T20:34:15.873Z,100.00
2023-03-31T20:36:47.361Z,100.00
2023-03-31T20:39:17.748Z,100.00
2023-03-31T20:41:45.767Z,100.00
2023-03-31T20:44:15.249Z,100.00
2023-03-31T20:46:44.411Z,100.00
2023-03-31T20:49:13.029Z,100.00
2023-03-31T20:51:40.980Z,100.00
2023-03-31T20:54:09.142Z,100.00
2023-03-31T20:56:39.978Z,100.00
2023-03-31T20:59:11.527Z,100.00
2023-03-31T21:01:39.917Z,100.00
2023-03-31T21:04:10.632Z,100.00
2023-03-31T21:06:40.901Z,100.00
2023-03-31T21:09:09.257Z,100.00
2023-03-31T21:11:40.216Z,100.00
2023-03-31T21:14:08.510Z,100.00
2023-03-31T21:16:36.673Z,100.00
2023-03-31T21:19:04.506Z,100.00
2023-03-31T21:21:32.346Z,100.00
2023-03-31T21:24:00.913Z,100.00
2023-03-31T21:26:28.456Z,100.00
2023-03-31T21:29:00.647Z,100.00
2023-03-31T21:31:28.383Z,100.00
2023-03-31T21:33:58.936Z,100.00
2023-03-31T21:36:26.986Z,100.00
2023-03-31T21:38:55.398Z,100.00
2023-03-31T21:41:25.323Z,100.00
2023-03-31T21:43:53.103Z,100.00
2023-03-31T21:46:24.228Z,100.00
2023-03-31T21:48:52.183Z,100.00
2023-03-31T21:51:20.966Z,100.00
2023-03-31T21:53:49.965Z,100.00
2023-03-31T21:56:17.494Z,100.00
2023-03-31T21:58:45.626Z,100.00
2023-03-31T22:01:13.587Z,100.00
2023-03-31T22:03:43.895Z,100.00
2023-03-31T22:06:11.684Z,100.00
2023-03-31T22:08:39.527Z,100.00
2023-03-31T22:11:09.602Z,100.00
2023-03-31T22:13:38.390Z,100.00
2023-03-31T22:16:15.157Z,100.00
2023-03-31T22:18:45.044Z,100.00
2023-03-31T22:21:17.717Z,100.00
2023-03-31T22:23:45.466Z,100.00
2023-03-31T22:26:13.481Z,100.00
2023-03-31T22:28:41.202Z,100.00
2023-03-31T22:31:09.852Z,100.00
2023-03-31T22:33:38.792Z,100.00
2023-03-31T22:36:08.713Z,100.00
2023-03-31T22:38:38.042Z,100.00
2023-03-31T22:41:06.403Z,100.00
2023-03-31T22:43:34.035Z,100.00
2023-03-31T22:46:03.771Z,100.00
2023-03-31T22:48:31.784Z,100.00
2023-03-31T22:51:01.603Z,100.00
2023-03-31T22:53:30.957Z,100.00
2023-03-31T22:56:04.267Z,100.00
2023-03-31T22:58:32.016Z,100.00
2023-03-31T23:01:00.409Z,100.00
2023-03-31T23:03:29.217Z,100.00
2023-03-31T23:05:57.150Z,100.00
2023-03-31T23:08:25.428Z,100.00
2023-03-31T23:10:59.016Z,100.00
2023-03-31T23:13:29.540Z,100.00
2023-03-31T23:16:02.646Z,100.00
2023-03-31T23:18:30.634Z,100.00
2023-03-31T23:21:03.557Z,100.00
2023-03-31T23:23:32.084Z,100.00
2023-03-31T23:26:02.238Z,100.00
2023-03-31T23:28:30.385Z,100.00
2023-03-31T23:30:58.081Z,100.00
2023-03-31T23:33:27.279Z,100.00
2023-03-31T23:35:59.200Z,100.00
2023-03-31T23:38:26.954Z,100.00
2023-03-31T23:40:54.531Z,100.00
2023-03-31T23:43:23.849Z,100.00
2023-03-31T23:45:51.977Z,100.00
2023-03-31T23:48:20.312Z,100.00
2023-03-31T23:50:48.078Z,100.00
2023-03-31T23:53:16.064Z,100.00
2023-03-31T23:55:43.676Z,100.00
2023-03-31T23:58:11.828Z,100.00
